Time;durP1;ratioP1;P1;durP2;ratioP2;P2;SDS_P1;SDS_P2;PMS_P1;PMS_P2;Temp;Humidity;BMP_temperature;BMP_pressure;BME280_temperature;BME280_humidity;BME280_pressure;Samples;Min_cycle;Max_cycle;Signal;HPM_P1;HPM_P2
2022/10/14 00:00:31;;;;;;;625.90;62.25;;;12.40;99.90;;;;;;4829412;29;20498;-87
2022/10/14 00:02:56;;;;;;;374.10;41.50;;;12.40;99.90;;;;;;4835648;29;20045;-86
2022/10/14 00:05:26;;;;;;;158.68;36.15;;;12.30;99.90;;;;;;4834006;29;20049;-86
2022/10/14 00:07:52;;;;;;;289.77;37.75;;;12.40;99.90;;;;;;4849196;29;20395;-86
2022/10/14 00:10:18;;;;;;;170.63;36.00;;;12.40;99.90;;;;;;4845461;29;20045;-86
2022/10/14 00:12:44;;;;;;;363.33;40.17;;;12.40;99.90;;;;;;4843483;29;20042;-86
2022/10/14 00:15:10;;;;;;;314.08;38.85;;;12.30;99.90;;;;;;4849127;29;20066;-86
2022/10/14 00:17:38;;;;;;;413.90;42.95;;;12.20;99.90;;;;;;4827615;29;20040;-87
2022/10/14 00:20:05;;;;;;;354.05;38.90;;;12.20;99.90;;;;;;4834094;29;20045;-86
2022/10/14 00:22:30;;;;;;;415.48;41.10;;;12.30;99.90;;;;;;4840827;29;20046;-86
2022/10/14 00:24:56;;;;;;;343.60;36.40;;;12.30;99.90;;;;;;4846682;29;20068;-86
2022/10/14 00:27:22;;;;;;;320.80;37.08;;;12.30;99.90;;;;;;4837243;29;20057;-86
2022/10/14 00:29:47;;;;;;;278.80;34.63;;;12.30;99.90;;;;;;4827039;29;20508;-86
2022/10/14 00:32:13;;;;;;;191.25;34.38;;;12.30;99.90;;;;;;4841521;29;20093;-85
2022/10/14 00:34:39;;;;;;;205.55;34.05;;;12.40;99.90;;;;;;4812710;29;20391;-86
2022/10/14 00:37:05;;;;;;;298.88;37.30;;;12.30;99.90;;;;;;4847178;29;20049;-87
2022/10/14 00:39:31;;;;;;;298.10;37.05;;;12.40;99.90;;;;;;4817076;29;20092;-86
2022/10/14 00:41:57;;;;;;;321.52;34.83;;;12.40;99.90;;;;;;4847694;29;20444;-86
2022/10/14 00:44:22;;;;;;;260.55;35.15;;;12.30;99.90;;;;;;4832735;29;20046;-86
2022/10/14 00:46:50;;;;;;;143.18;26.65;;;12.10;99.90;;;;;;4841431;29;20505;-86
2022/10/14 00:49:39;;;;;;;110.70;25.92;;;12.40;99.90;;;;;;4858420;29;20042;-87
2022/10/14 00:52:12;;;;;;;98.50;22.52;;;12.10;99.90;;;;;;4837262;29;20444;-86
2022/10/14 00:55:02;;;;;;;88.68;23.15;;;12.30;99.90;;;;;;4854199;29;20056;-87
2022/10/14 00:57:29;;;;;;;121.10;23.35;;;12.20;99.90;;;;;;4832842;29;20049;-87
2022/10/14 01:00:01;;;;;;;140.48;24.48;;;12.20;99.90;;;;;;4846498;29;20115;-87
2022/10/14 01:02:29;;;;;;;103.18;21.85;;;12.20;99.90;;;;;;4833889;29;20064;-86
2022/10/14 01:04:55;;;;;;;101.32;20.75;;;12.10;99.90;;;;;;4832604;29;20220;-87
2022/10/14 01:07:33;;;;;;;249.30;27.65;;;12.10;99.90;;;;;;4831245;29;20527;-87
2022/10/14 01:10:16;;;;;;;174.95;27.85;;;12.20;99.90;;;;;;4840899;29;20353;-86
2022/10/14 01:12:57;;;;;;;164.65;26.30;;;12.10;99.90;;;;;;4831104;29;20046;-87
2022/10/14 01:15:58;;;;;;;136.13;21.63;;;12.10;99.90;;;;;;4827944;29;20114;-86
2022/10/14 01:18:31;;;;;;;79.57;20.25;;;12.00;99.90;;;;;;4782390;29;20075;-86
2022/10/14 01:21:09;;;;;;;166.70;24.65;;;12.20;99.90;;;;;;4839797;29;20538;-86
2022/10/14 01:23:55;;;;;;;73.25;20.15;;;12.00;99.90;;;;;;4831279;29;20073;-87
2022/10/14 01:26:38;;;;;;;41.97;18.05;;;12.20;99.90;;;;;;4848896;29;20062;-86
2022/10/14 01:29:39;;;;;;;76.05;19.88;;;12.30;99.90;;;;;;4830332;29;20109;-86
2022/10/14 01:32:22;;;;;;;69.55;18.98;;;12.20;99.90;;;;;;4811683;29;20065;-86
2022/10/14 01:35:15;;;;;;;72.93;16.58;;;12.00;99.90;;;;;;4825684;29;20231;-87
2022/10/14 01:37:49;;;;;;;102.85;18.67;;;12.10;99.90;;;;;;4793102;29;20481;-86
2022/10/14 01:40:25;;;;;;;59.75;16.15;;;12.10;99.90;;;;;;4845551;29;20541;-85
2022/10/14 01:42:52;;;;;;;38.90;15.38;;;11.90;99.90;;;;;;4849824;29;20103;-87
2022/10/14 01:45:22;;;;;;;31.88;14.80;;;11.90;99.90;;;;;;4832326;29;20458;-87
2022/10/14 01:47:50;;;;;;;92.90;19.58;;;12.20;99.90;;;;;;4830470;29;20548;-87
2022/10/14 01:50:19;;;;;;;98.65;19.13;;;11.90;99.90;;;;;;4848716;29;20076;-87
2022/10/14 01:52:57;;;;;;;48.20;16.38;;;11.80;99.90;;;;;;4846761;29;20092;-86
2022/10/14 01:55:26;;;;;;;60.08;16.27;;;11.90;99.90;;;;;;4827535;29;20201;-86
2022/10/14 01:57:55;;;;;;;130.23;21.83;;;12.10;99.90;;;;;;4806033;29;20052;-86
2022/10/14 02:00:21;;;;;;;61.40;17.52;;;11.90;99.90;;;;;;4827297;29;20042;-86
2022/10/14 02:02:47;;;;;;;114.22;18.42;;;12.10;99.90;;;;;;4832263;29;20058;-86
2022/10/14 02:05:33;;;;;;;105.68;16.77;;;12.10;99.90;;;;;;4830169;29;20042;-86
2022/10/14 02:08:07;;;;;;;64.32;17.38;;;11.80;99.90;;;;;;4834473;29;20489;-87
2022/10/14 02:10:58;;;;;;;98.10;17.90;;;11.90;99.90;;;;;;4832384;29;20518;-86
2022/10/14 02:13:30;;;;;;;225.77;25.60;;;12.00;99.90;;;;;;4828764;29;20049;-86
2022/10/14 02:16:05;;;;;;;69.32;19.17;;;11.90;99.90;;;;;;4830568;29;20216;-86
2022/10/14 02:18:50;;;;;;;140.98;21.50;;;11.70;99.90;;;;;;4844800;29;20046;-87
2022/10/14 02:21:25;;;;;;;325.05;26.33;;;11.90;99.90;;;;;;4826737;29;20042;-87
2022/10/14 02:24:06;;;;;;;273.13;21.90;;;11.90;99.90;;;;;;4832087;29;20065;-86
2022/10/14 02:26:34;;;;;;;178.82;17.38;;;11.80;99.90;;;;;;4844466;29;20435;-86
2022/10/14 02:29:01;;;;;;;109.80;16.77;;;11.90;99.90;;;;;;4837389;29;20030;-86
2022/10/14 02:31:28;;;;;;;219.48;23.55;;;11.70;99.90;;;;;;4834037;29;20577;-87
2022/10/14 02:33:59;;;;;;;119.82;16.02;;;11.70;99.90;;;;;;4835223;29;20053;-86
2022/10/14 02:36:26;;;;;;;204.98;18.90;;;11.60;99.90;;;;;;4828355;29;20219;-87
2022/10/14 02:38:56;;;;;;;78.80;14.18;;;11.60;99.90;;;;;;4829480;29;20254;-86
2022/10/14 02:41:29;;;;;;;158.52;16.13;;;11.60;99.90;;;;;;4844438;29;20535;-86
2022/10/14 02:44:05;;;;;;;132.38;15.48;;;11.60;99.90;;;;;;4849389;29;20136;-87
2022/10/14 02:46:32;;;;;;;56.63;12.32;;;11.60;99.90;;;;;;4830877;29;20038;-86
2022/10/14 02:48:57;;;;;;;127.55;18.23;;;11.60;99.90;;;;;;4833474;29;20048;-88
2022/10/14 02:51:23;;;;;;;102.30;14.93;;;11.60;99.90;;;;;;4834435;29;20498;-86
2022/10/14 02:53:49;;;;;;;130.98;14.73;;;11.60;99.90;;;;;;4834904;29;20631;-87
2022/10/14 02:56:16;;;;;;;144.43;17.55;;;11.60;99.90;;;;;;4845556;29;20050;-86
2022/10/14 02:58:41;;;;;;;215.75;18.05;;;11.70;99.90;;;;;;4836475;29;20080;-86
2022/10/14 03:01:07;;;;;;;113.85;17.52;;;11.50;99.90;;;;;;4834125;29;20473;-87
2022/10/14 03:03:33;;;;;;;156.13;18.60;;;11.50;99.90;;;;;;4859286;29;20037;-86
2022/10/14 03:05:59;;;;;;;182.75;18.58;;;11.70;99.90;;;;;;4833270;29;20041;-87
2022/10/14 03:08:27;;;;;;;115.53;16.67;;;11.60;99.90;;;;;;4817686;29;20646;-87
2022/10/14 03:10:53;;;;;;;86.18;16.00;;;11.60;99.90;;;;;;4846359;29;20545;-87
2022/10/14 03:13:18;;;;;;;156.57;19.02;;;11.50;99.90;;;;;;4843887;29;20124;-86
2022/10/14 03:15:48;;;;;;;102.03;16.38;;;11.60;99.90;;;;;;4833378;29;20045;-87
2022/10/14 03:18:14;;;;;;;126.18;16.90;;;11.70;99.90;;;;;;4849009;29;20692;-86
2022/10/14 03:20:43;;;;;;;275.85;23.05;;;11.80;99.90;;;;;;4834117;29;20387;-87
2022/10/14 03:23:09;;;;;;;145.60;17.00;;;11.60;99.90;;;;;;4841441;29;20046;-87
2022/10/14 03:25:36;;;;;;;87.88;13.70;;;11.60;99.90;;;;;;4844648;29;20044;-87
2022/10/14 03:28:02;;;;;;;117.75;14.45;;;11.60;99.90;;;;;;4841134;29;20033;-86
2022/10/14 03:30:28;;;;;;;85.70;14.18;;;11.40;99.90;;;;;;4848034;29;20422;-87
2022/10/14 03:32:54;;;;;;;149.30;19.10;;;11.60;99.90;;;;;;4843169;29;20327;-87
2022/10/14 03:35:19;;;;;;;35.63;12.77;;;11.50;99.90;;;;;;4834377;29;20038;-86
2022/10/14 03:37:45;;;;;;;98.72;15.07;;;11.50;99.90;;;;;;4833098;29;20046;-87
2022/10/14 03:40:11;;;;;;;38.38;11.80;;;11.50;99.90;;;;;;4847308;29;20042;-86
2022/10/14 03:42:37;;;;;;;65.70;12.43;;;11.70;99.90;;;;;;4819183;29;20050;-86
2022/10/14 03:45:03;;;;;;;75.07;14.35;;;11.50;99.90;;;;;;4843281;29;20153;-87
2022/10/14 03:47:29;;;;;;;126.07;16.80;;;11.70;99.90;;;;;;4847695;29;20038;-87
2022/10/14 03:49:58;;;;;;;109.93;15.57;;;11.50;99.90;;;;;;4824625;29;20046;-86
2022/10/14 03:52:23;;;;;;;124.05;14.63;;;11.60;99.90;;;;;;4834211;29;20105;-87
2022/10/14 03:54:49;;;;;;;39.22;13.05;;;11.60;99.90;;;;;;4860301;29;20472;-87
2022/10/14 03:57:14;;;;;;;34.78;12.77;;;11.70;99.90;;;;;;4847679;29;20125;-87
2022/10/14 03:59:41;;;;;;;61.63;15.07;;;11.80;99.90;;;;;;4848171;29;20094;-86
2022/10/14 04:02:06;;;;;;;47.75;12.80;;;11.70;99.90;;;;;;4825995;29;20135;-86
2022/10/14 04:04:32;;;;;;;68.95;14.90;;;11.80;99.90;;;;;;4848988;29;20130;-87
2022/10/14 04:06:58;;;;;;;40.83;13.88;;;11.70;99.90;;;;;;4847719;29;20150;-87
2022/10/14 04:09:26;;;;;;;51.08;15.07;;;11.70;99.90;;;;;;4837126;29;20052;-86
2022/10/14 04:11:52;;;;;;;57.38;14.50;;;11.70;99.90;;;;;;4845308;29;20046;-87
2022/10/14 04:14:17;;;;;;;51.33;14.45;;;11.80;99.90;;;;;;4831511;29;20116;-87
2022/10/14 04:16:43;;;;;;;58.35;14.45;;;11.50;99.90;;;;;;4848515;29;20075;-87
2022/10/14 04:19:08;;;;;;;47.60;13.95;;;11.70;99.90;;;;;;4832753;29;20484;-87
2022/10/14 04:21:34;;;;;;;39.42;11.65;;;11.60;99.90;;;;;;4828849;29;20069;-86
2022/10/14 04:24:00;;;;;;;57.50;12.95;;;11.50;99.90;;;;;;4844649;29;20093;-87
2022/10/14 04:26:28;;;;;;;35.25;11.65;;;11.40;99.90;;;;;;4846503;29;20056;-87
2022/10/14 04:28:53;;;;;;;25.77;11.25;;;11.50;99.90;;;;;;4843572;29;20037;-87
2022/10/14 04:31:21;;;;;;;67.05;12.60;;;11.40;99.90;;;;;;4849118;29;20040;-86
2022/10/14 04:33:47;;;;;;;53.95;13.27;;;11.40;99.90;;;;;;4848158;29;20102;-87
2022/10/14 04:36:13;;;;;;;79.30;15.60;;;11.60;99.90;;;;;;4843259;29;20417;-86
2022/10/14 04:38:39;;;;;;;93.20;16.45;;;11.50;99.90;;;;;;4844581;29;20106;-86
2022/10/14 04:41:04;;;;;;;51.00;12.85;;;11.40;99.90;;;;;;4833035;29;20453;-87
2022/10/14 04:43:30;;;;;;;88.90;14.52;;;11.60;99.90;;;;;;4844993;29;20042;-86
2022/10/14 04:45:56;;;;;;;32.20;13.15;;;11.60;99.90;;;;;;4830404;29;20042;-87
2022/10/14 04:48:22;;;;;;;36.00;12.43;;;11.60;99.90;;;;;;4841965;29;20929;-86
2022/10/14 04:50:52;;;;;;;60.30;14.18;;;11.50;99.90;;;;;;4836694;29;20045;-88
2022/10/14 04:53:19;;;;;;;75.82;14.05;;;11.50;99.90;;;;;;4849650;29;20045;-86
2022/10/14 04:55:48;;;;;;;42.47;11.82;;;11.40;99.90;;;;;;4843052;29;20042;-88
2022/10/14 04:58:15;;;;;;;40.58;12.88;;;11.50;99.90;;;;;;4831870;29;20483;-87
2022/10/14 05:00:41;;;;;;;39.42;11.20;;;11.60;99.90;;;;;;4805981;29;20054;-86
2022/10/14 05:03:07;;;;;;;70.00;14.35;;;11.60;99.90;;;;;;4845679;29;20049;-87
2022/10/14 05:05:32;;;;;;;40.67;11.73;;;11.70;99.90;;;;;;4859046;29;20050;-86
2022/10/14 05:07:58;;;;;;;32.58;12.07;;;11.70;99.90;;;;;;4845501;29;20159;-86
2022/10/14 05:10:24;;;;;;;59.53;14.13;;;11.50;99.90;;;;;;4833312;29;20041;-87
2022/10/14 05:12:53;;;;;;;59.67;13.75;;;11.50;99.90;;;;;;4839430;29;20038;-86
2022/10/14 05:15:24;;;;;;;37.72;12.68;;;11.70;99.90;;;;;;4832611;29;20052;-87
2022/10/14 05:17:50;;;;;;;45.25;13.20;;;11.70;99.90;;;;;;4824641;29;20057;-86
2022/10/14 05:20:15;;;;;;;28.33;12.73;;;11.70;99.90;;;;;;4828934;29;20045;-86
2022/10/14 05:22:44;;;;;;;42.63;13.52;;;11.60;99.90;;;;;;4830349;29;20069;-87
2022/10/14 05:25:09;;;;;;;45.10;14.07;;;11.70;99.90;;;;;;4831468;29;20062;-86
2022/10/14 05:27:35;;;;;;;42.67;14.27;;;11.70;99.90;;;;;;4848540;29;20377;-86
2022/10/14 05:30:01;;;;;;;43.20;14.40;;;11.80;99.90;;;;;;4859539;29;20041;-86
2022/10/14 05:32:27;;;;;;;31.25;12.98;;;11.60;99.90;;;;;;4821747;29;20152;-87
2022/10/14 05:34:54;;;;;;;36.15;13.55;;;11.60;99.90;;;;;;4862530;29;20298;-88
2022/10/14 05:37:19;;;;;;;43.28;14.50;;;11.80;99.90;;;;;;4833558;29;20060;-87
2022/10/14 05:39:54;;;;;;;43.75;15.15;;;11.70;99.90;;;;;;4829445;29;20409;-87
2022/10/14 05:42:20;;;;;;;48.20;16.10;;;11.70;99.90;;;;;;4860096;29;20152;-85
2022/10/14 05:44:45;;;;;;;39.47;14.90;;;11.60;99.90;;;;;;4840613;29;20271;-86
2022/10/14 05:47:11;;;;;;;33.17;12.23;;;11.70;99.90;;;;;;4846516;29;20119;-86
2022/10/14 05:49:42;;;;;;;33.38;12.20;;;11.80;99.90;;;;;;4829197;29;20057;-85
2022/10/14 05:52:11;;;;;;;31.65;11.88;;;11.80;99.90;;;;;;4831046;29;20221;-86
2022/10/14 05:54:37;;;;;;;31.63;12.07;;;11.60;99.90;;;;;;4816585;29;20080;-85
2022/10/14 05:57:02;;;;;;;43.20;12.60;;;11.80;99.90;;;;;;4831116;29;20201;-85
2022/10/14 05:59:28;;;;;;;43.00;13.93;;;11.80;99.90;;;;;;4830230;29;20049;-85
2022/10/14 06:01:55;;;;;;;29.95;12.38;;;11.70;99.90;;;;;;4833036;29;20446;-85
2022/10/14 06:04:21;;;;;;;32.53;13.27;;;11.90;99.90;;;;;;4831637;29;20751;-84
2022/10/14 06:06:47;;;;;;;27.23;11.82;;;11.70;99.90;;;;;;4830353;29;20129;-85
2022/10/14 06:09:13;;;;;;;29.15;11.73;;;11.70;99.90;;;;;;4816591;29;20152;-85
2022/10/14 06:11:39;;;;;;;32.72;12.45;;;11.90;99.90;;;;;;4831644;29;20099;-85
2022/10/14 06:14:05;;;;;;;31.98;12.60;;;11.90;99.90;;;;;;4837117;29;20041;-86
2022/10/14 06:16:31;;;;;;;53.72;13.20;;;11.90;99.90;;;;;;4826408;29;20046;-85
2022/10/14 06:18:57;;;;;;;38.00;13.43;;;11.90;99.90;;;;;;4832420;29;20072;-85
2022/10/14 06:21:22;;;;;;;47.67;14.35;;;11.80;99.90;;;;;;4858367;29;20132;-85
2022/10/14 06:23:48;;;;;;;61.95;14.80;;;12.00;99.90;;;;;;4838967;29;20145;-85
2022/10/14 06:26:14;;;;;;;43.25;14.07;;;11.90;99.90;;;;;;4842558;29;20045;-86
2022/10/14 06:28:39;;;;;;;41.72;13.98;;;11.80;99.90;;;;;;4827396;29;20049;-84
2022/10/14 06:31:05;;;;;;;48.85;13.82;;;11.90;99.90;;;;;;4842439;29;20573;-85
2022/10/14 06:33:32;;;;;;;50.55;15.23;;;11.80;99.90;;;;;;4830483;29;20045;-85
2022/10/14 06:36:00;;;;;;;52.47;14.63;;;11.90;99.90;;;;;;4830884;29;20113;-85
2022/10/14 06:38:28;;;;;;;48.25;12.60;;;12.00;99.90;;;;;;4830914;29;20548;-85
2022/10/14 06:40:54;;;;;;;64.32;14.88;;;11.90;99.90;;;;;;4807306;29;20616;-84
2022/10/14 06:43:21;;;;;;;46.20;13.70;;;12.10;99.90;;;;;;4857274;29;20042;-85
2022/10/14 06:45:47;;;;;;;51.25;14.93;;;11.90;99.90;;;;;;4846299;29;20129;-85
2022/10/14 06:48:14;;;;;;;72.47;16.25;;;12.00;99.90;;;;;;4846029;29;20096;-85
2022/10/14 06:50:40;;;;;;;67.13;15.10;;;12.20;99.90;;;;;;4839043;29;20046;-85
2022/10/14 06:53:08;;;;;;;45.17;13.98;;;12.30;99.90;;;;;;4843683;29;20057;-85
2022/10/14 06:55:34;;;;;;;78.72;17.15;;;12.30;99.90;;;;;;4831130;29;21006;-85
2022/10/14 06:58:00;;;;;;;64.28;17.45;;;12.10;99.90;;;;;;4833123;29;20038;-85
2022/10/14 07:00:25;;;;;;;50.13;17.38;;;12.30;99.90;;;;;;4859096;29;20042;-85
2022/10/14 07:02:51;;;;;;;84.68;20.55;;;12.20;99.90;;;;;;4833357;29;20058;-85
2022/10/14 07:05:17;;;;;;;54.25;18.08;;;12.20;99.90;;;;;;4829369;29;20841;-86
2022/10/14 07:07:42;;;;;;;52.53;17.65;;;12.50;99.90;;;;;;4801376;29;20121;-85
2022/10/14 07:10:08;;;;;;;49.38;16.92;;;12.50;99.90;;;;;;4830162;29;20096;-85
2022/10/14 07:12:34;;;;;;;45.22;16.42;;;12.50;99.90;;;;;;4859918;29;20113;-85
2022/10/14 07:15:00;;;;;;;57.70;17.33;;;12.40;99.90;;;;;;4828123;29;20064;-85
2022/10/14 07:17:26;;;;;;;52.55;18.00;;;12.30;99.90;;;;;;4842912;29;20151;-85
2022/10/14 07:19:51;;;;;;;49.75;17.92;;;12.40;99.90;;;;;;4824120;29;20491;-84
2022/10/14 07:22:17;;;;;;;49.05;16.15;;;12.50;99.90;;;;;;4830087;29;20124;-85
2022/10/14 07:24:43;;;;;;;48.42;17.95;;;12.70;99.90;;;;;;4856681;29;20041;-84
2022/10/14 07:27:10;;;;;;;51.35;18.52;;;12.50;99.90;;;;;;4831062;29;20152;-85
2022/10/14 07:29:36;;;;;;;43.83;17.02;;;12.70;99.90;;;;;;4847000;29;20038;-84
2022/10/14 07:32:05;;;;;;;50.08;19.05;;;12.60;99.90;;;;;;4839467;29;20041;-85
2022/10/14 07:34:32;;;;;;;43.15;17.00;;;12.80;99.90;;;;;;4830789;29;20124;-85
2022/10/14 07:36:58;;;;;;;47.53;18.55;;;12.60;99.90;;;;;;4844294;29;20426;-85
2022/10/14 07:39:24;;;;;;;40.53;18.15;;;12.70;99.90;;;;;;4862283;29;20133;-85
2022/10/14 07:41:50;;;;;;;45.58;17.88;;;12.80;99.90;;;;;;4861413;29;20046;-85
2022/10/14 07:44:16;;;;;;;42.10;17.92;;;12.60;99.90;;;;;;4860892;29;20049;-85
2022/10/14 07:46:45;;;;;;;47.80;18.63;;;12.60;99.90;;;;;;4842833;29;20041;-85
2022/10/14 07:49:18;;;;;;;42.88;17.92;;;12.50;99.90;;;;;;4832253;29;20504;-85
2022/10/14 07:51:45;;;;;;;43.85;19.27;;;12.40;99.90;;;;;;4850125;29;20069;-84
2022/10/14 07:54:15;;;;;;;44.58;18.48;;;12.60;99.90;;;;;;4846988;29;20445;-84
2022/10/14 07:56:42;;;;;;;41.38;19.40;;;12.70;99.90;;;;;;4846801;29;20049;-84
2022/10/14 07:59:08;;;;;;;41.60;18.27;;;12.70;99.90;;;;;;4819711;29;20052;-85
2022/10/14 08:01:34;;;;;;;39.95;18.17;;;12.60;99.90;;;;;;4862133;29;20079;-85
2022/10/14 08:04:00;;;;;;;41.65;18.40;;;12.80;99.90;;;;;;4859726;29;20494;-85
2022/10/14 08:06:28;;;;;;;46.42;19.88;;;13.00;99.90;;;;;;4830638;29;20053;-85
2022/10/14 08:08:54;;;;;;;37.33;17.65;;;12.80;99.90;;;;;;4833165;29;20045;-85
2022/10/14 08:11:23;;;;;;;36.67;17.50;;;13.10;99.90;;;;;;4845859;29;20090;-85
2022/10/14 08:13:50;;;;;;;43.03;18.02;;;12.90;99.90;;;;;;4835987;29;20053;-85
2022/10/14 08:16:22;;;;;;;38.38;17.60;;;12.90;99.90;;;;;;4831957;29;20581;-86
2022/10/14 08:18:48;;;;;;;36.08;17.52;;;13.10;99.90;;;;;;4845290;29;20121;-85
2022/10/14 08:21:15;;;;;;;37.35;16.05;;;13.30;99.90;;;;;;4827995;29;20474;-86
2022/10/14 08:23:42;;;;;;;33.85;17.08;;;13.20;99.90;;;;;;4832836;29;20222;-86
2022/10/14 08:26:18;;;;;;;38.28;16.98;;;13.00;99.90;;;;;;4845572;29;20038;-85
2022/10/14 08:28:44;;;;;;;34.35;16.55;;;13.10;99.90;;;;;;4848178;29;20057;-85
2022/10/14 08:31:10;;;;;;;33.88;16.27;;;13.40;99.90;;;;;;4845447;29;20414;-85
2022/10/14 08:33:38;;;;;;;38.28;17.15;;;13.20;99.90;;;;;;4832966;29;20069;-85
2022/10/14 08:36:04;;;;;;;33.35;16.08;;;13.50;99.90;;;;;;4833025;29;20052;-84
2022/10/14 08:38:30;;;;;;;32.60;16.63;;;13.10;99.90;;;;;;4832958;29;20050;-85
2022/10/14 08:41:12;;;;;;;29.60;15.75;;;13.50;99.90;;;;;;4829851;29;20446;-85
2022/10/14 08:43:48;;;;;;;30.65;15.30;;;13.30;99.90;;;;;;4847334;29;20222;-85
2022/10/14 08:46:45;;;;;;;31.77;15.63;;;13.30;99.90;;;;;;4836601;29;20112;-85
2022/10/14 08:49:57;;;;;;;30.33;15.70;;;13.50;99.90;;;;;;4833307;29;20279;-85
2022/10/14 08:52:39;;;;;;;32.13;16.33;;;13.30;99.90;;;;;;4829790;29;20060;-85
2022/10/14 08:55:28;;;;;;;29.85;14.98;;;13.40;99.90;;;;;;4826896;29;20125;-85
2022/10/14 08:57:59;;;;;;;29.80;15.75;;;13.60;99.90;;;;;;4831141;29;20141;-85
2022/10/14 09:00:27;;;;;;;28.55;15.07;;;13.30;99.90;;;;;;4826539;29;20307;-85
2022/10/14 09:02:52;;;;;;;26.42;14.80;;;13.40;99.90;;;;;;4843666;29;20065;-85
2022/10/14 09:05:24;;;;;;;29.05;15.00;;;13.70;99.90;;;;;;4834110;29;20046;-85
2022/10/14 09:07:52;;;;;;;34.35;15.48;;;13.40;99.90;;;;;;4829191;29;20042;-85
2022/10/14 09:10:24;;;;;;;29.02;15.10;;;13.90;99.90;;;;;;4844956;29;20124;-85
2022/10/14 09:12:52;;;;;;;26.55;14.90;;;13.50;99.90;;;;;;4841700;29;20391;-85
2022/10/14 09:15:34;;;;;;;30.20;15.77;;;13.80;99.90;;;;;;4842632;29;20482;-85
2022/10/14 09:18:11;;;;;;;28.50;15.88;;;13.70;99.90;;;;;;4818710;29;20057;-85
2022/10/14 09:20:38;;;;;;;30.27;16.40;;;13.80;99.90;;;;;;4798401;29;20125;-86
2022/10/14 09:23:03;;;;;;;29.48;16.58;;;14.10;99.90;;;;;;4834213;29;20053;-86
2022/10/14 09:25:33;;;;;;;31.17;16.25;;;14.20;99.90;;;;;;4822512;29;20042;-85
2022/10/14 09:27:59;;;;;;;30.90;15.82;;;14.20;99.90;;;;;;4846072;29;20117;-85
2022/10/14 09:30:27;;;;;;;29.08;15.80;;;13.90;99.90;;;;;;4827716;29;20046;-86
2022/10/14 09:32:54;;;;;;;29.02;15.32;;;13.90;99.90;;;;;;4843115;29;20105;-85
2022/10/14 09:35:26;;;;;;;27.20;15.60;;;14.20;99.90;;;;;;4845166;29;20459;-85
2022/10/14 09:37:52;;;;;;;30.67;16.08;;;13.80;99.90;;;;;;4821893;29;20142;-86
2022/10/14 09:40:29;;;;;;;27.80;16.05;;;14.10;99.90;;;;;;4840649;29;20047;-84
2022/10/14 09:43:11;;;;;;;31.63;15.73;;;13.80;99.90;;;;;;4835577;29;20045;-84
2022/10/14 09:45:48;;;;;;;30.20;16.33;;;14.30;99.90;;;;;;4813553;29;20182;-85
2022/10/14 09:48:44;;;;;;;28.55;15.35;;;14.30;99.90;;;;;;4828724;29;20046;-84
2022/10/14 09:51:21;;;;;;;28.83;15.38;;;14.20;99.90;;;;;;4842073;29;20049;-85
2022/10/14 09:53:58;;;;;;;31.13;15.85;;;14.00;99.90;;;;;;4840929;29;20642;-85
2022/10/14 09:56:35;;;;;;;29.05;15.85;;;14.20;99.90;;;;;;4860230;29;20049;-85
2022/10/14 09:59:02;;;;;;;31.20;16.27;;;14.00;99.90;;;;;;4824749;29;20061;-85
2022/10/14 10:01:41;;;;;;;27.38;14.90;;;13.90;99.90;;;;;;4825537;29;20087;-85
2022/10/14 10:04:32;;;;;;;27.38;15.10;;;14.20;99.90;;;;;;4831176;29;20410;-87
2022/10/14 10:07:01;;;;;;;27.23;15.63;;;14.10;99.90;;;;;;4823337;29;20100;-86
2022/10/14 10:09:26;;;;;;;25.50;14.63;;;14.20;99.90;;;;;;4810395;29;20486;-86
2022/10/14 10:11:54;;;;;;;26.80;14.60;;;14.00;99.90;;;;;;4830382;29;20041;-87
2022/10/14 10:14:24;;;;;;;29.05;14.15;;;14.30;99.90;;;;;;4830856;29;20050;-88
2022/10/14 10:17:10;;;;;;;28.55;16.90;;;14.20;99.90;;;;;;4827181;29;20046;-87
2022/10/14 10:19:37;;;;;;;27.63;15.63;;;14.20;99.90;;;;;;4844704;29;20050;-87
2022/10/14 10:22:18;;;;;;;31.08;16.20;;;14.30;99.90;;;;;;4832411;29;20080;-87
2022/10/14 10:24:44;;;;;;;26.27;14.85;;;14.10;99.90;;;;;;4844064;29;20045;-87
2022/10/14 10:27:27;;;;;;;24.52;13.98;;;14.00;99.90;;;;;;4827443;29;20099;-87
2022/10/14 10:29:56;;;;;;;27.58;14.55;;;14.00;99.90;;;;;;4842851;29;20306;-89
2022/10/14 10:33:00;;;;;;;24.98;13.75;;;14.30;99.90;;;;;;4827256;29;20095;-88
2022/10/14 10:35:54;;;;;;;24.85;13.40;;;14.10;99.90;;;;;;4843151;29;20164;-88
2022/10/14 10:38:48;;;;;;;23.75;14.10;;;14.30;99.90;;;;;;4840446;29;20310;-88
2022/10/14 10:41:23;;;;;;;24.08;12.80;;;14.30;99.90;;;;;;4844019;29;20116;-89
2022/10/14 10:44:07;;;;;;;24.45;13.10;;;14.40;99.90;;;;;;4829649;29;20050;-88
2022/10/14 10:46:32;;;;;;;22.40;11.98;;;14.10;99.90;;;;;;4816921;29;20102;-89
2022/10/14 10:49:12;;;;;;;21.13;11.57;;;14.20;99.90;;;;;;4831393;29;20243;-88
2022/10/14 10:51:52;;;;;;;20.48;10.98;;;14.10;99.90;;;;;;4861005;29;20041;-88
2022/10/14 10:54:39;;;;;;;20.35;10.57;;;14.40;99.90;;;;;;4844020;29;20095;-89
2022/10/14 10:57:44;;;;;;;19.55;10.40;;;14.00;99.90;;;;;;4834385;29;20046;-89
2022/10/14 11:00:22;;;;;;;17.63;9.93;;;14.40;99.90;;;;;;4844629;29;20128;-88
2022/10/14 11:03:20;;;;;;;17.05;9.45;;;14.30;99.90;;;;;;4844603;29;20068;-87
2022/10/14 11:06:06;;;;;;;19.15;10.32;;;14.30;99.90;;;;;;4844617;29;20046;-88
2022/10/14 11:12:11;;;;;;;16.65;9.32;;;14.60;99.90;;;;;;4861850;29;20056;-88
2022/10/14 11:14:52;;;;;;;17.60;9.88;;;14.60;99.90;;;;;;4846901;29;20304;-89
2022/10/14 11:17:25;;;;;;;18.17;9.10;;;14.70;99.90;;;;;;4860197;29;20543;-88
2022/10/14 11:20:22;;;;;;;15.75;8.88;;;14.60;99.90;;;;;;4846670;29;20049;-89
2022/10/14 11:23:25;;;;;;;18.00;8.93;;;14.30;99.90;;;;;;4849094;29;20053;-89
2022/10/14 11:26:31;;;;;;;17.20;8.32;;;14.30;99.90;;;;;;4866788;29;20408;-90
2022/10/14 11:29:34;;;;;;;18.00;8.80;;;14.10;99.90;;;;;;4851552;29;20038;-89
2022/10/14 11:32:40;;;;;;;15.88;9.18;;;14.30;99.90;;;;;;4841331;29;20211;-89
2022/10/14 11:35:44;;;;;;;16.08;8.43;;;14.40;99.90;;;;;;4838736;29;20053;-88
2022/10/14 11:38:47;;;;;;;15.27;8.05;;;14.50;99.90;;;;;;4826252;29;20049;-89
2022/10/14 11:41:22;;;;;;;16.33;7.88;;;14.80;99.90;;;;;;4834682;29;20069;-89
2022/10/14 11:44:14;;;;;;;13.60;7.63;;;14.80;99.90;;;;;;4835502;29;20141;-88
2022/10/14 11:46:45;;;;;;;13.70;7.65;;;14.70;99.90;;;;;;4848692;29;20823;-88
2022/10/14 11:49:20;;;;;;;13.65;8.20;;;14.80;99.90;;;;;;4864807;29;20037;-88
2022/10/14 11:51:57;;;;;;;14.55;8.30;;;14.80;99.90;;;;;;4863675;29;20045;-87
2022/10/14 11:54:38;;;;;;;14.32;7.50;;;14.90;99.90;;;;;;4865720;29;20045;-87
2022/10/14 11:57:31;;;;;;;13.00;7.88;;;14.70;99.90;;;;;;4865806;29;20393;-87
2022/10/14 12:00:06;;;;;;;14.05;8.13;;;14.50;99.90;;;;;;4865710;29;20049;-87
2022/10/14 12:02:51;;;;;;;;;;;14.70;99.90;;;;;;4838265;29;20050;-88
2022/10/14 12:05:20;;;;;;;12.88;7.75;;;14.60;99.90;;;;;;4831382;29;19928;-89
2022/10/14 12:08:24;;;;;;;15.02;9.20;;;14.70;99.90;;;;;;4847430;29;20086;-88
2022/10/14 12:11:36;;;;;;;14.80;8.95;;;14.80;99.90;;;;;;4809647;29;20058;-88
2022/10/14 12:14:16;;;;;;;13.65;9.27;;;14.60;99.90;;;;;;4821842;29;20054;-87
2022/10/14 12:16:44;;;;;;;13.82;9.52;;;14.60;99.90;;;;;;4848718;29;20455;-88
2022/10/14 12:19:13;;;;;;;12.48;9.00;;;14.70;99.90;;;;;;4849373;29;20209;-88
2022/10/14 12:21:56;;;;;;;14.00;9.27;;;14.60;99.90;;;;;;4840087;29;20045;-88
2022/10/14 12:24:29;;;;;;;14.50;9.57;;;14.90;99.90;;;;;;4841862;29;20203;-88
2022/10/14 12:26:59;;;;;;;13.68;9.65;;;14.70;99.90;;;;;;4837654;29;20537;-88
2022/10/14 12:29:29;;;;;;;11.82;8.10;;;14.70;99.90;;;;;;4860637;29;20073;-87
2022/10/14 12:32:07;;;;;;;12.40;8.45;;;15.00;99.90;;;;;;4859375;29;20102;-88
2022/10/14 12:34:38;;;;;;;14.65;9.27;;;14.90;99.90;;;;;;4846897;29;20548;-87
2022/10/14 12:37:23;;;;;;;12.07;8.10;;;14.60;99.90;;;;;;4845976;29;20476;-88
2022/10/14 12:40:13;;;;;;;15.25;9.85;;;15.00;99.90;;;;;;4821316;29;20062;-88
2022/10/14 12:43:02;;;;;;;14.93;10.27;;;14.90;99.90;;;;;;4831518;29;20378;-88
2022/10/14 12:45:31;;;;;;;16.25;11.00;;;14.60;99.90;;;;;;4846754;29;20160;-88
2022/10/14 12:48:25;;;;;;;15.68;11.02;;;14.50;99.90;;;;;;4841406;29;20272;-89
2022/10/14 12:51:07;;;;;;;16.90;10.15;;;14.50;99.90;;;;;;4832718;29;20073;-88
2022/10/14 12:53:34;;;;;;;16.48;11.02;;;14.70;99.90;;;;;;4848123;29;20144;-88